createdAt,value
2019-05-25T00:00:49.617Z,5.50
2019-05-25T00:01:49.606Z,6.00
2019-05-25T00:02:49.600Z,5.50
2019-05-25T00:03:49.592Z,5.50
2019-05-25T00:04:49.585Z,5.70
2019-05-25T00:05:49.577Z,5.50
2019-05-25T00:06:49.571Z,5.30
2019-05-25T00:07:49.564Z,5.40
2019-05-25T00:08:49.559Z,6.70
2019-05-25T00:09:49.546Z,6.60
2019-05-25T00:10:49.539Z,6.30
2019-05-25T00:11:49.535Z,5.70
2019-05-25T00:12:49.528Z,5.50
2019-05-25T00:13:49.523Z,5.20
2019-05-25T00:14:49.513Z,5.60
2019-05-25T00:15:49.508Z,5.30
2019-05-25T00:16:49.498Z,5.50
2019-05-25T00:17:49.494Z,5.60
2019-05-25T00:18:49.488Z,5.20
2019-05-25T00:19:49.481Z,5.50
2019-05-25T00:20:49.474Z,5.30
2019-05-25T00:21:49.466Z,5.00
2019-05-25T00:22:49.462Z,4.90
2019-05-25T00:23:49.453Z,5.50
2019-05-25T00:24:49.445Z,5.70
2019-05-25T00:25:49.443Z,5.40
2019-05-25T00:26:49.431Z,5.50
2019-05-25T00:27:49.426Z,5.30
2019-05-25T00:28:49.465Z,5.60
2019-05-25T00:29:49.411Z,5.30
2019-05-25T00:30:49.402Z,4.60
2019-05-25T00:31:49.395Z,5.20
2019-05-25T00:32:49.384Z,5.50
2019-05-25T00:33:49.379Z,4.90
2019-05-25T00:34:49.374Z,5.40
2019-05-25T00:35:49.418Z,5.00
2019-05-25T00:36:49.356Z,6.00
2019-05-25T00:37:49.354Z,5.70
2019-05-25T00:38:49.343Z,5.30
2019-05-25T00:39:49.337Z,5.90
2019-05-25T00:40:49.332Z,6.00
2019-05-25T00:41:49.323Z,5.70
2019-05-25T00:42:49.313Z,5.60
2019-05-25T00:43:49.308Z,5.40
2019-05-25T00:44:49.303Z,5.30
2019-05-25T00:45:49.293Z,4.70
2019-05-25T00:46:49.294Z,5.20
2019-05-25T00:47:49.310Z,4.90
2019-05-25T00:48:49.272Z,5.00
2019-05-25T00:49:49.266Z,5.10
2019-05-25T00:50:49.258Z,5.00
2019-05-25T00:51:49.279Z,5.10
2019-05-25T00:52:49.243Z,5.10
2019-05-25T00:53:49.234Z,5.10
2019-05-25T00:54:49.228Z,5.00
2019-05-25T00:55:49.223Z,4.90
2019-05-25T00:56:49.213Z,5.00
2019-05-25T00:57:49.212Z,5.20
2019-05-25T00:58:49.199Z,4.80
2019-05-25T00:59:49.196Z,5.00
2019-05-25T01:00:49.185Z,4.70
2019-05-25T01:01:49.180Z,5.30
2019-05-25T01:02:49.183Z,5.00
2019-05-25T01:03:49.163Z,5.00
2019-05-25T01:04:49.157Z,4.90
2019-05-25T01:05:49.204Z,5.10
2019-05-25T01:06:49.142Z,5.30
2019-05-25T01:07:49.149Z,5.20
2019-05-25T01:08:49.131Z,5.30
2019-05-25T01:09:49.125Z,4.90
2019-05-25T01:10:49.119Z,5.30
2019-05-25T01:11:49.108Z,5.70
2019-05-25T01:12:49.102Z,5.80
2019-05-25T01:13:49.097Z,6.10
2019-05-25T01:14:49.091Z,5.80
2019-05-25T01:15:49.084Z,6.20
2019-05-25T01:16:49.078Z,5.90
2019-05-25T01:17:49.069Z,6.40
2019-05-25T01:18:49.061Z,5.50
2019-05-25T01:19:49.053Z,5.10
2019-05-25T01:20:49.044Z,5.80
2019-05-25T01:21:49.038Z,6.30
2019-05-25T01:22:49.033Z,5.60
2019-05-25T01:23:49.027Z,6.00
2019-05-25T01:24:49.020Z,5.20
2019-05-25T01:25:49.017Z,6.20
2019-05-25T01:26:49.006Z,6.00
2019-05-25T01:27:48.999Z,6.00
2019-05-25T01:28:48.989Z,5.60
2019-05-25T01:29:48.983Z,5.90
2019-05-25T01:30:48.975Z,5.80
2019-05-25T01:31:48.969Z,5.90
2019-05-25T01:32:48.959Z,5.80
2019-05-25T01:33:48.954Z,5.60
2019-05-25T01:34:48.969Z,5.70
2019-05-25T01:35:48.943Z,6.50
2019-05-25T01:36:48.933Z,6.50
2019-05-25T01:37:48.932Z,6.30
2019-05-25T01:38:48.919Z,6.10
2019-05-25T01:39:48.911Z,5.90
2019-05-25T01:40:48.907Z,6.00
2019-05-25T01:41:48.897Z,6.00
2019-05-25T01:42:48.891Z,5.90
2019-05-25T01:43:48.880Z,6.30
2019-05-25T01:44:48.874Z,6.20
2019-05-25T01:45:48.869Z,5.80
2019-05-25T01:46:48.859Z,5.60
2019-05-25T01:47:48.851Z,5.80
2019-05-25T01:48:48.845Z,5.70
2019-05-25T01:49:48.839Z,6.00
2019-05-25T01:50:48.834Z,6.20
2019-05-25T01:51:48.822Z,5.60
2019-05-25T01:52:48.820Z,6.00
2019-05-25T01:53:48.809Z,6.30
2019-05-25T01:54:59.503Z,5.60
2019-05-25T01:55:48.795Z,5.70
2019-05-25T01:56:48.787Z,5.80
2019-05-25T01:57:48.783Z,5.50
2019-05-25T01:58:48.773Z,5.80
2019-05-25T01:59:48.765Z,6.20
2019-05-25T02:00:48.757Z,6.10
2019-05-25T02:01:48.752Z,5.70
2019-05-25T02:02:48.760Z,5.80
2019-05-25T02:03:48.740Z,5.70
2019-05-25T02:04:48.731Z,5.90
2019-05-25T02:05:48.721Z,5.60
2019-05-25T02:06:48.716Z,6.50
2019-05-25T02:07:48.706Z,6.50
2019-05-25T02:08:48.700Z,6.30
2019-05-25T02:09:48.693Z,6.10
2019-05-25T02:10:48.685Z,6.30
2019-05-25T02:11:48.677Z,5.70
2019-05-25T02:12:48.669Z,5.90
2019-05-25T02:13:48.664Z,5.40
2019-05-25T02:14:48.666Z,5.50
2019-05-25T02:15:48.651Z,6.20
2019-05-25T02:16:48.644Z,5.60
2019-05-25T02:17:48.642Z,5.60
2019-05-25T02:18:48.626Z,6.00
2019-05-25T02:19:48.621Z,5.70
2019-05-25T02:20:48.609Z,6.00
2019-05-25T02:21:48.603Z,5.60
2019-05-25T02:22:48.598Z,5.00
2019-05-25T02:23:48.591Z,5.30
2019-05-25T02:24:48.581Z,6.10
2019-05-25T02:25:48.572Z,5.90
2019-05-25T02:26:48.583Z,5.70
2019-05-25T02:27:48.557Z,6.10
2019-05-25T02:28:48.552Z,6.30
2019-05-25T02:29:48.543Z,6.00
2019-05-25T02:30:48.537Z,6.10
2019-05-25T02:31:48.529Z,5.90
2019-05-25T02:32:48.523Z,6.20
2019-05-25T02:33:48.514Z,5.60
2019-05-25T02:34:48.505Z,6.00
2019-05-25T02:35:48.502Z,5.80
2019-05-25T02:36:48.493Z,5.20
2019-05-25T02:37:48.483Z,5.20
2019-05-25T02:38:48.483Z,5.20
2019-05-25T02:39:48.478Z,5.50
2019-05-25T02:40:48.482Z,5.10
2019-05-25T02:41:48.460Z,5.40
2019-05-25T02:42:48.449Z,5.30
2019-05-25T02:43:48.442Z,5.10
2019-05-25T02:44:48.433Z,5.20
2019-05-25T02:45:48.426Z,5.40
2019-05-25T02:46:48.446Z,5.40
2019-05-25T02:47:48.466Z,5.20
2019-05-25T02:48:48.404Z,5.20
2019-05-25T02:49:48.402Z,5.60
2019-05-25T02:50:48.393Z,4.80
2019-05-25T02:51:48.381Z,5.20
2019-05-25T02:52:48.378Z,5.30
2019-05-25T02:53:48.369Z,5.20
2019-05-25T02:54:48.362Z,4.90
2019-05-25T02:55:48.354Z,5.00
2019-05-25T02:56:48.346Z,5.40
2019-05-25T02:57:48.341Z,5.00
2019-05-25T02:58:48.331Z,5.50
2019-05-25T02:59:48.326Z,5.50
2019-05-25T03:00:48.324Z,5.60
2019-05-25T03:01:48.315Z,5.60
2019-05-25T03:02:48.326Z,5.90
2019-05-25T03:03:48.295Z,5.70
2019-05-25T03:04:48.290Z,5.80
2019-05-25T03:05:48.284Z,5.90
2019-05-25T03:06:48.280Z,5.50
2019-05-25T03:07:48.284Z,5.00
2019-05-25T03:08:48.261Z,5.50
2019-05-25T03:09:48.419Z,5.50
2019-05-25T03:10:48.248Z,5.70
2019-05-25T03:11:48.239Z,5.90
2019-05-25T03:12:48.231Z,5.40
2019-05-25T03:13:48.244Z,5.80
2019-05-25T03:14:48.220Z,5.50
2019-05-25T03:15:48.209Z,5.50
2019-05-25T03:16:48.278Z,6.10
2019-05-25T03:17:48.217Z,5.80
2019-05-25T03:18:48.186Z,5.80
2019-05-25T03:19:48.181Z,5.40
2019-05-25T03:20:48.175Z,5.60
2019-05-25T03:21:48.173Z,4.90
2019-05-25T03:22:48.158Z,5.10
2019-05-25T03:23:48.152Z,5.50
2019-05-25T03:24:48.144Z,5.40
2019-05-25T03:25:49.839Z,5.40
2019-05-25T03:26:48.127Z,5.70
2019-05-25T03:27:48.123Z,5.70
2019-05-25T03:28:48.114Z,5.10
2019-05-25T03:29:48.110Z,5.40
2019-05-25T03:30:48.101Z,5.60
2019-05-25T03:31:48.098Z,5.60
2019-05-25T03:32:48.086Z,5.70
2019-05-25T03:33:48.078Z,5.20
2019-05-25T03:34:48.073Z,5.70
2019-05-25T03:35:48.068Z,5.70
2019-05-25T03:36:48.060Z,5.50
2019-05-25T03:37:48.053Z,4.90
2019-05-25T03:38:48.049Z,5.40
2019-05-25T03:39:48.040Z,5.20
2019-05-25T03:40:48.044Z,5.70
2019-05-25T03:41:48.027Z,5.60
2019-05-25T03:42:48.014Z,6.20
2019-05-25T03:43:48.005Z,6.10
2019-05-25T03:44:47.998Z,6.20
2019-05-25T03:45:47.996Z,5.90
2019-05-25T03:46:47.989Z,5.60
2019-05-25T03:47:47.984Z,6.30
2019-05-25T03:48:47.970Z,6.10
2019-05-25T03:49:47.963Z,6.00
2019-05-25T03:50:48.022Z,7.10
2019-05-25T03:51:47.950Z,6.80
2019-05-25T03:52:47.939Z,6.90
2019-05-25T03:53:47.937Z,6.00
2019-05-25T03:54:47.930Z,6.60
2019-05-25T03:55:47.918Z,6.40
2019-05-25T03:56:47.913Z,6.60
2019-05-25T03:57:47.905Z,5.80
2019-05-25T03:58:47.899Z,5.70
2019-05-25T03:59:47.890Z,6.20
2019-05-25T04:00:47.883Z,6.60
2019-05-25T04:01:47.878Z,6.50
2019-05-25T04:02:47.888Z,6.20
2019-05-25T04:03:47.868Z,6.20
2019-05-25T04:04:47.859Z,6.00
2019-05-25T04:05:47.846Z,5.60
2019-05-25T04:06:47.841Z,6.30
2019-05-25T04:07:47.831Z,6.50
2019-05-25T04:08:47.832Z,6.30
2019-05-25T04:09:47.817Z,5.90
2019-05-25T04:10:47.812Z,5.80
2019-05-25T04:11:47.800Z,5.90
2019-05-25T04:12:47.795Z,5.90
2019-05-25T04:13:47.792Z,6.00
2019-05-25T04:14:47.781Z,6.10
2019-05-25T04:15:47.779Z,6.10
2019-05-25T04:16:47.765Z,5.70
2019-05-25T04:17:47.756Z,6.20
2019-05-25T04:18:47.749Z,6.30
2019-05-25T04:19:47.747Z,6.60
2019-05-25T04:20:47.737Z,6.50
2019-05-25T04:21:47.728Z,7.20
2019-05-25T04:22:47.727Z,6.90
2019-05-25T04:23:47.715Z,6.40
2019-05-25T04:24:47.704Z,6.60
2019-05-25T04:25:47.700Z,6.80
2019-05-25T04:26:47.693Z,6.00
2019-05-25T04:27:47.684Z,6.40
2019-05-25T04:28:47.675Z,6.40
2019-05-25T04:29:47.671Z,6.60
2019-05-25T04:30:47.666Z,6.60
2019-05-25T04:31:47.660Z,6.50
2019-05-25T04:32:47.645Z,6.60
2019-05-25T04:33:47.641Z,6.20
2019-05-25T04:34:47.634Z,6.70
2019-05-25T04:35:47.623Z,6.70
2019-05-25T04:36:47.619Z,6.30
2019-05-25T04:37:47.612Z,6.20
2019-05-25T04:38:47.610Z,5.90
2019-05-25T04:39:47.597Z,5.80
2019-05-25T04:40:47.587Z,6.10
2019-05-25T04:41:47.587Z,6.30
2019-05-25T04:42:47.574Z,6.60
2019-05-25T04:43:47.568Z,6.10
2019-05-25T04:44:47.556Z,5.50
2019-05-25T04:45:47.552Z,6.30
2019-05-25T04:46:47.546Z,6.60
2019-05-25T04:47:47.535Z,6.00
2019-05-25T04:48:47.529Z,5.90
2019-05-25T04:49:47.528Z,5.90
2019-05-25T04:50:47.512Z,5.90
2019-05-25T04:51:47.507Z,6.00
2019-05-25T04:52:47.506Z,6.00
2019-05-25T04:53:47.493Z,6.30
2019-05-25T04:54:47.486Z,6.20
2019-05-25T04:55:47.476Z,6.20
2019-05-25T04:56:47.474Z,6.80
2019-05-25T04:57:47.464Z,6.20
2019-05-25T04:58:47.455Z,6.70
2019-05-25T04:59:47.452Z,6.30
2019-05-25T05:00:47.450Z,6.10
2019-05-25T05:01:47.435Z,6.00
2019-05-25T05:02:47.426Z,6.50
2019-05-25T05:03:47.422Z,6.70
2019-05-25T05:04:47.415Z,6.00
2019-05-25T05:05:47.411Z,6.10
2019-05-25T05:06:47.409Z,6.40
2019-05-25T05:07:47.390Z,6.60
2019-05-25T05:08:47.385Z,6.30
2019-05-25T05:10:01.766Z,6.30
2019-05-25T05:10:47.372Z,6.40
2019-05-25T05:11:47.363Z,7.00
2019-05-25T05:12:47.361Z,6.40
2019-05-25T05:13:47.357Z,6.80
2019-05-25T05:14:47.344Z,6.70
2019-05-25T05:15:47.336Z,6.70
2019-05-25T05:16:47.329Z,6.20
2019-05-25T05:17:47.322Z,6.20
2019-05-25T05:18:47.315Z,7.00
2019-05-25T05:19:47.308Z,5.80
2019-05-25T05:20:47.305Z,6.40
2019-05-25T05:21:47.298Z,6.10
2019-05-25T05:22:47.290Z,6.50
2019-05-25T05:23:47.282Z,5.80
2019-05-25T05:24:47.273Z,5.60
2019-05-25T05:25:47.270Z,6.70
2019-05-25T05:26:55.680Z,6.90
2019-05-25T05:27:47.254Z,6.20
2019-05-25T05:28:49.209Z,6.40
2019-05-25T05:29:47.242Z,6.90
2019-05-25T05:30:47.236Z,6.40
2019-05-25T05:31:47.236Z,6.50
2019-05-25T05:32:47.222Z,6.80
2019-05-25T05:33:47.217Z,6.70
2019-05-25T05:34:47.210Z,6.40
2019-05-25T05:35:47.202Z,6.30
2019-05-25T05:36:47.194Z,6.60
2019-05-25T05:37:47.192Z,6.80
2019-05-25T05:38:47.185Z,6.70
2019-05-25T05:39:47.177Z,6.00
2019-05-25T05:40:47.171Z,5.90
2019-05-25T05:41:47.163Z,6.30
2019-05-25T05:42:47.162Z,6.60
2019-05-25T05:43:47.150Z,6.30
2019-05-25T05:44:47.147Z,6.20
2019-05-25T05:45:47.141Z,6.60
2019-05-25T05:46:47.134Z,7.20
2019-05-25T05:47:47.128Z,5.90
2019-05-25T05:48:47.124Z,6.30
2019-05-25T05:49:47.116Z,6.40
2019-05-25T05:50:47.137Z,6.50
2019-05-25T05:51:47.103Z,7.00
2019-05-25T05:52:47.109Z,6.40
2019-05-25T05:53:47.093Z,6.40
2019-05-25T05:54:47.092Z,6.30
2019-05-25T05:55:47.082Z,6.50
2019-05-25T05:56:47.077Z,6.80
2019-05-25T05:57:47.072Z,6.80
2019-05-25T05:58:47.068Z,6.90
2019-05-25T05:59:47.058Z,6.60
2019-05-25T06:00:47.055Z,6.90
2019-05-25T06:01:47.052Z,6.10
2019-05-25T06:02:47.039Z,6.50
2019-05-25T06:03:47.039Z,6.80
2019-05-25T06:04:47.029Z,7.40
2019-05-25T06:05:47.024Z,7.50
2019-05-25T06:06:47.017Z,7.00
2019-05-25T06:07:47.013Z,6.50
2019-05-25T06:08:47.008Z,6.40
2019-05-25T06:09:47.000Z,7.10
2019-05-25T06:10:46.995Z,6.50
2019-05-25T06:11:46.988Z,7.20
2019-05-25T06:12:46.984Z,6.10
2019-05-25T06:13:46.978Z,7.40
2019-05-25T06:14:46.993Z,6.70
2019-05-25T06:15:46.969Z,6.60
2019-05-25T06:16:46.963Z,6.50
2019-05-25T06:17:46.956Z,6.90
2019-05-25T06:18:46.955Z,6.50
2019-05-25T06:19:46.946Z,7.10
2019-05-25T06:20:46.940Z,7.50
2019-05-25T06:21:46.936Z,7.00
2019-05-25T06:22:46.928Z,7.30
2019-05-25T06:23:46.925Z,6.70
2019-05-25T06:24:46.918Z,7.30
2019-05-25T06:25:46.913Z,6.40
2019-05-25T06:26:46.911Z,7.20
2019-05-25T06:27:46.899Z,6.70
2019-05-25T06:28:46.894Z,7.00
2019-05-25T06:29:46.892Z,7.40
2019-05-25T06:30:46.889Z,7.00
2019-05-25T06:31:46.881Z,7.80
2019-05-25T06:32:46.873Z,7.00
2019-05-25T06:33:46.867Z,6.90
2019-05-25T06:34:46.863Z,7.20
2019-05-25T06:35:46.860Z,7.00
2019-05-25T06:36:46.853Z,6.70
2019-05-25T06:37:46.847Z,7.10
2019-05-25T06:38:46.844Z,7.10
2019-05-25T06:39:46.836Z,7.60
2019-05-25T06:40:46.830Z,6.90
2019-05-25T06:41:46.828Z,7.20
2019-05-25T06:42:46.822Z,7.20
2019-05-25T06:43:46.820Z,7.10
2019-05-25T06:44:46.808Z,7.20
2019-05-25T06:45:46.805Z,6.80
2019-05-25T06:46:46.801Z,8.10
2019-05-25T06:47:46.805Z,7.60
2019-05-25T06:48:46.788Z,7.20
2019-05-25T06:49:46.784Z,7.60
2019-05-25T06:50:46.780Z,7.80
2019-05-25T06:51:46.777Z,6.60
2019-05-25T06:52:46.774Z,6.90
2019-05-25T06:53:46.768Z,6.50
2019-05-25T06:54:46.759Z,6.70
2019-05-25T06:55:46.754Z,7.30
2019-05-25T06:56:46.751Z,7.10
2019-05-25T06:57:46.748Z,7.10
2019-05-25T06:58:46.740Z,7.10
2019-05-25T06:59:46.736Z,7.30
2019-05-25T07:00:46.732Z,7.10
2019-05-25T07:01:46.730Z,7.90
2019-05-25T07:02:46.724Z,7.80
2019-05-25T07:03:46.720Z,8.20
2019-05-25T07:04:46.716Z,7.20
2019-05-25T07:05:46.712Z,8.30
2019-05-25T07:06:46.706Z,8.20
2019-05-25T07:07:46.710Z,7.40
2019-05-25T07:08:46.702Z,7.60
2019-05-25T07:09:46.696Z,7.50
2019-05-25T07:10:46.688Z,7.30
2019-05-25T07:11:46.684Z,7.20
2019-05-25T07:12:46.678Z,7.40
2019-05-25T07:13:46.677Z,8.50
2019-05-25T07:14:46.680Z,8.10
2019-05-25T07:15:46.668Z,7.30
2019-05-25T07:16:46.663Z,7.60
2019-05-25T07:17:46.657Z,6.60
2019-05-25T07:18:46.654Z,6.80
2019-05-25T07:19:46.650Z,7.60
2019-05-25T07:20:46.645Z,6.70
2019-05-25T07:21:46.644Z,6.70
2019-05-25T07:22:46.636Z,7.20
2019-05-25T07:23:46.634Z,6.70
2019-05-25T07:24:46.626Z,7.20
2019-05-25T07:25:46.622Z,7.00
2019-05-25T07:26:46.618Z,7.30
2019-05-25T07:27:58.730Z,7.40
2019-05-25T07:28:46.610Z,7.30
2019-05-25T07:29:46.607Z,7.50
2019-05-25T07:30:46.838Z,6.50
2019-05-25T07:31:46.599Z,7.50
2019-05-25T07:32:46.595Z,6.90
2019-05-25T07:33:46.599Z,7.30
2019-05-25T07:34:46.588Z,6.90
2019-05-25T07:35:46.582Z,7.00
2019-05-25T07:36:46.579Z,6.40
2019-05-25T07:37:46.591Z,7.40
2019-05-25T07:38:46.571Z,6.50
2019-05-25T07:39:46.572Z,7.10
2019-05-25T07:40:46.564Z,6.70
2019-05-25T07:41:46.561Z,6.50
2019-05-25T07:42:46.554Z,7.10
2019-05-25T07:43:46.551Z,6.60
2019-05-25T07:44:46.549Z,6.90
2019-05-25T07:45:46.544Z,6.60
2019-05-25T07:46:46.542Z,7.20
2019-05-25T07:47:46.535Z,6.80
2019-05-25T07:48:46.529Z,7.00
2019-05-25T07:49:46.528Z,6.80
2019-05-25T07:50:46.522Z,6.70
2019-05-25T07:51:46.517Z,7.60
2019-05-25T07:52:46.516Z,7.00
2019-05-25T07:53:46.509Z,7.00
2019-05-25T07:54:46.520Z,7.10
2019-05-25T07:55:46.510Z,7.50
2019-05-25T07:56:46.499Z,7.00
2019-05-25T07:57:46.498Z,6.80
2019-05-25T07:58:46.500Z,6.50
2019-05-25T07:59:46.487Z,7.30
2019-05-25T08:00:46.483Z,7.30
2019-05-25T08:01:46.500Z,7.10
2019-05-25T08:02:46.481Z,6.70
2019-05-25T08:04:46.470Z,7.50
2019-05-25T08:05:46.467Z,7.40
2019-05-25T08:06:46.467Z,7.50
2019-05-25T08:07:46.459Z,7.00
2019-05-25T08:08:46.458Z,6.90
2019-05-25T08:09:46.452Z,6.60
2019-05-25T08:10:46.449Z,7.20
2019-05-25T08:11:46.443Z,6.80
2019-05-25T08:12:46.443Z,7.00
2019-05-25T08:13:46.437Z,6.80
2019-05-25T08:14:46.440Z,6.60
2019-05-25T08:15:46.431Z,7.00
2019-05-25T08:16:46.425Z,7.40
2019-05-25T08:17:46.422Z,6.90
2019-05-25T08:18:46.417Z,7.40
2019-05-25T08:19:46.414Z,7.20
2019-05-25T08:20:47.293Z,6.40
2019-05-25T08:21:46.411Z,6.70
2019-05-25T08:22:46.407Z,6.40
2019-05-25T08:23:46.402Z,6.20
2019-05-25T08:24:46.398Z,7.10
2019-05-25T08:25:46.401Z,6.90
2019-05-25T08:26:46.391Z,7.40
2019-05-25T08:27:46.386Z,6.30
2019-05-25T08:28:46.383Z,7.20
2019-05-25T08:29:46.382Z,6.80
2019-05-25T08:30:46.395Z,6.50
2019-05-25T08:31:46.376Z,6.80
2019-05-25T08:32:46.373Z,6.50
2019-05-25T08:33:46.367Z,7.10
2019-05-25T08:34:46.365Z,7.20
2019-05-25T08:35:46.575Z,7.10
2019-05-25T08:36:46.357Z,7.40
2019-05-25T08:37:46.356Z,6.90
2019-05-25T08:38:46.356Z,7.60
2019-05-25T08:39:46.349Z,7.60
2019-05-25T08:40:46.344Z,7.30
2019-05-25T08:41:46.346Z,7.10
2019-05-25T08:42:46.342Z,6.80
2019-05-25T08:43:46.336Z,7.60
2019-05-25T08:44:46.330Z,7.40
2019-05-25T08:45:46.334Z,6.80
2019-05-25T08:46:46.328Z,7.50
2019-05-25T08:47:46.321Z,7.30
2019-05-25T08:48:46.316Z,7.70
2019-05-25T08:49:46.312Z,7.90
2019-05-25T08:50:46.308Z,7.80
2019-05-25T08:51:46.304Z,7.50
2019-05-25T08:52:46.304Z,7.30
2019-05-25T08:53:46.841Z,8.00
2019-05-25T08:54:46.294Z,7.90
2019-05-25T08:55:46.287Z,7.40
2019-05-25T08:56:46.284Z,7.70
2019-05-25T08:57:46.281Z,7.40
2019-05-25T08:58:48.657Z,6.80
2019-05-25T08:59:46.271Z,7.00
2019-05-25T09:00:46.267Z,7.00
2019-05-25T09:01:46.263Z,6.80
2019-05-25T09:02:46.257Z,7.20
2019-05-25T09:03:46.254Z,7.00
2019-05-25T09:04:46.255Z,7.10
2019-05-25T09:05:46.245Z,6.60
2019-05-25T09:06:46.242Z,6.90
2019-05-25T09:07:46.237Z,6.30
2019-05-25T09:08:46.234Z,6.40
2019-05-25T09:09:46.258Z,6.80
2019-05-25T09:10:46.226Z,7.60
2019-05-25T09:11:46.219Z,8.00
2019-05-25T09:12:46.213Z,9.60
2019-05-25T09:13:46.208Z,9.30
2019-05-25T09:14:46.207Z,8.90
2019-05-25T09:15:46.201Z,8.80
2019-05-25T09:16:46.193Z,9.80
2019-05-25T09:17:46.193Z,9.40
2019-05-25T09:18:46.199Z,9.50
2019-05-25T09:19:46.188Z,10.60
2019-05-25T09:20:46.176Z,10.80
2019-05-25T09:22:01.391Z,10.70
2019-05-25T09:22:46.169Z,10.70
2019-05-25T09:23:48.729Z,10.70
2019-05-25T09:24:46.157Z,12.10
2019-05-25T09:25:46.153Z,10.40
2019-05-25T09:26:46.147Z,11.60
2019-05-25T09:27:46.144Z,11.90
2019-05-25T09:28:46.138Z,11.20
2019-05-25T09:29:46.135Z,11.50
2019-05-25T09:30:46.131Z,10.70
2019-05-25T09:31:46.125Z,10.50
2019-05-25T09:32:46.120Z,11.10
2019-05-25T09:33:46.116Z,11.30
2019-05-25T09:34:46.113Z,11.30
2019-05-25T09:35:46.104Z,11.00
2019-05-25T09:36:46.103Z,10.80
2019-05-25T09:37:46.098Z,10.50
2019-05-25T09:38:46.093Z,10.60
2019-05-25T09:39:46.245Z,10.90
2019-05-25T09:40:46.083Z,11.10
2019-05-25T09:41:46.079Z,11.00
2019-05-25T09:42:46.087Z,10.70
2019-05-25T09:43:46.068Z,10.40
2019-05-25T09:44:46.064Z,10.50
2019-05-25T09:45:46.059Z,9.50
2019-05-25T09:46:46.060Z,8.70
2019-05-25T09:47:46.051Z,10.60
2019-05-25T09:48:46.045Z,11.00
2019-05-25T09:49:46.041Z,11.90
2019-05-25T09:50:46.038Z,12.20
2019-05-25T09:51:48.608Z,12.00
2019-05-25T09:52:46.032Z,11.50
2019-05-25T09:53:46.022Z,10.90
2019-05-25T09:54:46.021Z,10.90
2019-05-25T09:55:46.018Z,10.80
2019-05-25T09:56:46.012Z,11.80
2019-05-25T09:57:46.005Z,11.70
2019-05-25T09:58:46.007Z,11.30
2019-05-25T09:59:45.998Z,11.10
2019-05-25T10:00:45.994Z,10.60
2019-05-25T10:01:45.990Z,11.30
2019-05-25T10:02:46.296Z,11.00
2019-05-25T10:03:45.979Z,10.90
2019-05-25T10:04:45.977Z,10.70
2019-05-25T10:05:45.973Z,11.50
2019-05-25T10:06:45.967Z,11.10
2019-05-25T10:07:45.968Z,10.80
2019-05-25T10:08:45.966Z,10.70
2019-05-25T10:09:45.957Z,11.20
2019-05-25T10:10:45.957Z,10.20
2019-05-25T10:11:45.948Z,10.20
2019-05-25T10:12:45.945Z,11.00
2019-05-25T10:13:45.941Z,11.40
2019-05-25T10:14:45.946Z,11.20
2019-05-25T10:15:45.932Z,10.70
2019-05-25T10:16:45.929Z,11.20
2019-05-25T10:17:45.928Z,10.40
2019-05-25T10:18:45.926Z,10.50
2019-05-25T10:19:45.920Z,10.40
2019-05-25T10:20:45.916Z,9.60
2019-05-25T10:21:45.915Z,10.40
2019-05-25T10:22:45.911Z,10.60
2019-05-25T10:23:45.905Z,11.20
2019-05-25T10:24:45.906Z,10.90
2019-05-25T10:25:45.899Z,10.60
2019-05-25T10:26:45.896Z,10.10
2019-05-25T10:27:45.892Z,9.90
2019-05-25T10:28:45.891Z,10.60
2019-05-25T10:29:45.888Z,9.90
2019-05-25T10:30:45.883Z,10.60
2019-05-25T10:31:45.882Z,11.70
2019-05-25T10:32:45.876Z,10.70
2019-05-25T10:33:45.875Z,10.10
2019-05-25T10:34:45.872Z,10.90
2019-05-25T10:35:45.868Z,10.10
2019-05-25T10:36:45.860Z,11.40
2019-05-25T10:37:45.860Z,10.10
2019-05-25T10:38:45.858Z,10.30
2019-05-25T10:39:45.861Z,10.60
2019-05-25T10:40:45.852Z,10.80
2019-05-25T10:41:45.845Z,11.20
2019-05-25T10:42:45.842Z,10.60
2019-05-25T10:43:45.838Z,10.50
2019-05-25T10:44:45.845Z,11.00
2019-05-25T10:45:45.831Z,10.80
2019-05-25T10:46:45.834Z,10.30
2019-05-25T10:47:45.825Z,11.00
2019-05-25T10:48:45.822Z,10.40
2019-05-25T10:49:45.819Z,11.00
2019-05-25T10:50:45.815Z,10.70
2019-05-25T10:51:45.811Z,10.90
2019-05-25T10:52:45.808Z,11.10
2019-05-25T10:53:45.803Z,11.70
2019-05-25T10:54:45.805Z,11.50
2019-05-25T10:55:45.798Z,11.90
2019-05-25T10:56:45.793Z,11.90
2019-05-25T10:57:45.794Z,11.20
2019-05-25T10:58:45.790Z,11.00
2019-05-25T10:59:52.802Z,11.10
2019-05-25T11:00:45.778Z,11.10
2019-05-25T11:01:45.796Z,11.50
2019-05-25T11:02:45.783Z,10.60
2019-05-25T11:03:45.770Z,11.30
2019-05-25T11:04:45.764Z,11.60
2019-05-25T11:05:45.763Z,10.70
2019-05-25T11:06:45.763Z,10.60
2019-05-25T11:07:45.758Z,10.80
2019-05-25T11:08:45.754Z,10.50
2019-05-25T11:09:45.746Z,10.20
2019-05-25T11:10:45.751Z,10.60
2019-05-25T11:11:45.742Z,10.20
2019-05-25T11:12:45.741Z,9.80
2019-05-25T11:13:45.732Z,9.30
2019-05-25T11:14:45.733Z,9.50
2019-05-25T11:15:45.726Z,9.60
2019-05-25T11:16:45.733Z,9.50
2019-05-25T11:17:45.716Z,8.40
2019-05-25T11:18:45.716Z,8.20
2019-05-25T11:19:45.711Z,8.10
2019-05-25T11:20:45.721Z,8.60
2019-05-25T11:21:45.709Z,8.50
2019-05-25T11:22:45.701Z,7.90
2019-05-25T11:23:45.697Z,8.20
2019-05-25T11:24:45.692Z,7.80
2019-05-25T11:25:45.689Z,7.90
2019-05-25T11:26:45.687Z,8.10
2019-05-25T11:27:45.679Z,7.00
2019-05-25T11:28:45.684Z,7.90
2019-05-25T11:29:45.676Z,8.00
2019-05-25T11:30:45.674Z,7.40
2019-05-25T11:31:54.364Z,7.50
2019-05-25T11:32:45.666Z,8.00
2019-05-25T11:33:45.662Z,7.90
2019-05-25T11:34:45.659Z,8.80
2019-05-25T11:35:45.659Z,8.60
2019-05-25T11:36:45.653Z,8.00
2019-05-25T11:37:45.649Z,8.20
2019-05-25T11:38:45.645Z,8.30
2019-05-25T11:39:45.642Z,8.40
2019-05-25T11:40:45.640Z,8.10
2019-05-25T11:41:45.637Z,8.30
2019-05-25T11:42:45.634Z,9.10
2019-05-25T11:43:45.631Z,8.60
2019-05-25T11:44:45.630Z,8.80
2019-05-25T11:45:45.667Z,9.60
2019-05-25T11:46:45.623Z,9.60
2019-05-25T11:47:45.624Z,8.50
2019-05-25T11:48:45.618Z,9.80
2019-05-25T11:49:45.616Z,9.70
2019-05-25T11:50:45.611Z,9.40
2019-05-25T11:51:45.611Z,9.10
2019-05-25T11:52:45.844Z,9.60
2019-05-25T11:53:45.604Z,8.60
2019-05-25T11:54:45.610Z,8.60
2019-05-25T11:55:45.602Z,9.10
2019-05-25T11:56:45.598Z,9.80
2019-05-25T11:57:45.595Z,10.00
2019-05-25T11:58:47.735Z,10.20
2019-05-25T11:59:45.590Z,9.60
2019-05-25T12:00:45.588Z,9.40
2019-05-25T12:01:45.587Z,8.80
2019-05-25T12:02:45.589Z,9.50
2019-05-25T12:03:45.583Z,8.80
2019-05-25T12:04:45.584Z,9.00
2019-05-25T12:05:45.581Z,8.40
2019-05-25T12:06:45.575Z,8.60
2019-05-25T12:07:45.573Z,9.10
2019-05-25T12:08:45.572Z,8.70
2019-05-25T12:09:45.574Z,8.90
2019-05-25T12:10:45.567Z,8.30
2019-05-25T12:11:45.563Z,8.60
2019-05-25T12:12:45.569Z,8.80
2019-05-25T12:13:45.563Z,9.70
2019-05-25T12:14:45.565Z,8.20
2019-05-25T12:15:45.557Z,8.40
2019-05-25T12:16:45.557Z,8.50
2019-05-25T12:17:45.555Z,8.00
2019-05-25T12:18:45.554Z,7.90
2019-05-25T12:19:45.556Z,7.70
2019-05-25T12:20:45.549Z,7.90
2019-05-25T12:21:45.549Z,7.70
2019-05-25T12:22:45.547Z,7.70
2019-05-25T12:23:45.546Z,7.60
2019-05-25T12:24:45.544Z,7.30
2019-05-25T12:25:45.536Z,8.10
2019-05-25T12:26:45.540Z,7.90
2019-05-25T12:27:49.081Z,6.90
2019-05-25T12:28:45.536Z,6.60
2019-05-25T12:29:45.532Z,6.50
2019-05-25T12:30:45.529Z,7.00
2019-05-25T12:31:45.529Z,6.50
2019-05-25T12:32:45.527Z,7.30
2019-05-25T12:33:45.521Z,8.70
2019-05-25T12:34:45.524Z,6.90
2019-05-25T12:35:45.516Z,4.40
2019-05-25T12:36:45.517Z,3.20
2019-05-25T12:37:45.521Z,3.30
2019-05-25T12:38:45.511Z,2.90
2019-05-25T12:39:45.524Z,2.90
2019-05-25T12:40:53.538Z,2.50
2019-05-25T12:41:45.510Z,2.80
2019-05-25T12:42:46.015Z,2.70
2019-05-25T12:43:45.501Z,2.50
2019-05-25T12:44:45.499Z,3.10
2019-05-25T12:45:45.497Z,2.80
2019-05-25T12:46:45.492Z,2.80
2019-05-25T12:47:45.490Z,2.40
2019-05-25T12:48:45.487Z,2.70
2019-05-25T12:49:50.524Z,2.50
2019-05-25T12:50:45.480Z,2.60
2019-05-25T12:51:45.477Z,2.80
2019-05-25T12:52:45.473Z,2.60
2019-05-25T12:53:45.472Z,2.40
2019-05-25T12:54:45.466Z,2.30
2019-05-25T12:55:45.464Z,2.50
2019-05-25T12:56:45.458Z,2.80
2019-05-25T12:57:45.459Z,2.40
2019-05-25T12:58:45.454Z,2.80
2019-05-25T12:59:45.447Z,2.10
2019-05-25T13:00:55.609Z,2.40
2019-05-25T13:01:45.583Z,2.60
2019-05-25T13:02:45.437Z,2.50
2019-05-25T13:03:45.430Z,2.60
2019-05-25T13:04:45.427Z,2.60
2019-05-25T13:05:45.424Z,2.50
2019-05-25T13:06:45.419Z,2.50
2019-05-25T13:07:45.420Z,2.50
2019-05-25T13:08:45.412Z,3.00
2019-05-25T13:09:45.407Z,3.00
2019-05-25T13:10:45.403Z,3.10
2019-05-25T13:11:45.401Z,2.60
2019-05-25T13:12:45.397Z,3.30
2019-05-25T13:13:45.389Z,3.20
2019-05-25T13:14:45.384Z,3.00
2019-05-25T13:15:45.378Z,3.20